Terminal Aerodrome Forecast
Issued by NWS Grand Rapids, MI

Home | Current Version | Previous Version | Text Only | Print | Product List | Glossary On
Versions: 1 2 3 4 5 6 7 8 9 10 11 12 13 14 15 16 17 18 19 20 21 22
000
FTUS43 KGRR 301358 AAB
TAFGRR
TAF AMD
KGRR 301358Z 3014/3112 09003KT 1/2SM FG VV002
     FM301500 08004KT 1 1/2SM BR OVC007
     FM301700 25006KT 5SM HZ BKN018
     FM302300 25008KT P6SM SKC
     FM310600 VRB03KT 4SM BR SKC
     FM311100 VRB03KT 2SM BR SKC=

USA.gov is the U.S. government's official web portal to all federal, state and local government web resources and services.